Time;durP1;ratioP1;P1;durP2;ratioP2;P2;SDS_P1;SDS_P2;PMS_P1;PMS_P2;Temp;Humidity;BMP_temperature;BMP_pressure;BME280_temperature;BME280_humidity;BME280_pressure;Samples;Min_cycle;Max_cycle;Signal;HPM_P1;HPM_P2
2023/01/25 00:02:03;;;;;;;10.80;5.70;;;;;;;8.22;70.52;102978.19;4947978;28;20548;-86
2023/01/25 00:04:29;;;;;;;8.15;5.03;;;;;;;8.13;70.38;102952.19;4957581;28;20793;-85
2023/01/25 00:06:54;;;;;;;8.52;5.30;;;;;;;8.19;70.47;102963.94;4958026;28;20056;-86
2023/01/25 00:09:22;;;;;;;8.85;5.25;;;;;;;7.95;70.30;102921.72;4974740;28;20033;-86
2023/01/25 00:11:48;;;;;;;9.88;6.10;;;;;;;8.19;70.23;102967.50;4974735;28;20030;-85
2023/01/25 00:14:14;;;;;;;10.02;5.30;;;;;;;8.07;70.26;102941.16;4973754;28;20030;-85
2023/01/25 00:16:43;;;;;;;;;;;;;;;8.24;70.30;102999.19;4958138;28;20055;-84
2023/01/25 00:19:09;;;;;;;9.60;5.78;;;;;;;8.13;70.74;102956.47;4972682;28;19930;-86
2023/01/25 00:21:35;;;;;;;10.07;5.35;;;;;;;8.19;70.11;102975.31;4962757;28;20037;-85
2023/01/25 00:24:02;;;;;;;8.77;5.35;;;;;;;8.19;70.50;102969.16;4974477;28;20034;-84
2023/01/25 00:26:30;;;;;;;;;;;;;;;8.24;70.35;102975.75;4941760;28;20037;-85
2023/01/25 00:28:56;;;;;;;8.68;5.32;;;;;;;7.75;70.70;102888.56;4974040;28;19992;-87
2023/01/25 00:31:49;;;;;;;11.32;5.60;;;;;;;8.21;70.59;102965.94;4957124;28;20445;-87
2023/01/25 00:34:23;;;;;;;9.48;4.97;;;;;;;8.16;70.32;102964.56;4973003;28;20118;-86
2023/01/25 00:36:57;;;;;;;7.68;5.50;;;;;;;8.16;70.34;102946.34;4972962;28;20105;-86
2023/01/25 00:39:24;;;;;;;8.63;5.10;;;;;;;7.93;70.14;102907.66;4963657;28;20042;-84
2023/01/25 00:41:50;;;;;;;10.07;4.90;;;;;;;8.05;70.44;102936.59;4954125;28;20038;-86
2023/01/25 00:44:15;;;;;;;9.30;5.55;;;;;;;7.95;70.37;102911.31;4969666;28;20030;-87
2023/01/25 00:46:41;;;;;;;12.10;5.40;;;;;;;7.84;70.21;102905.06;4954349;28;20511;-84
2023/01/25 00:49:23;;;;;;;10.55;5.38;;;;;;;7.98;69.95;102915.91;4940368;28;20027;-85
2023/01/25 00:51:50;;;;;;;8.88;5.28;;;;;;;8.15;70.29;102962.75;4955627;28;20432;-86
2023/01/25 00:54:16;;;;;;;9.32;5.40;;;;;;;8.16;69.70;102952.47;4956238;28;20408;-86
2023/01/25 00:56:42;;;;;;;;;;;;;;;8.16;70.02;102962.88;4956783;28;20027;-86
2023/01/25 00:59:09;;;;;;;9.45;5.47;;;;;;;7.98;69.94;102928.91;4955946;28;19925;-85
2023/01/25 01:01:35;;;;;;;9.98;5.22;;;;;;;8.20;69.98;102969.31;4974359;28;20046;-85
2023/01/25 01:04:01;;;;;;;11.98;5.85;;;;;;;8.19;70.08;102961.34;4979919;28;20022;-85
2023/01/25 01:06:27;;;;;;;9.18;5.10;;;;;;;8.20;70.30;102964.09;4970650;28;20554;-85
2023/01/25 01:08:52;;;;;;;10.20;5.28;;;;;;;8.18;70.52;102954.31;4956139;28;20030;-85
2023/01/25 01:11:18;;;;;;;8.52;5.10;;;;;;;8.14;70.24;102948.78;4948451;28;20420;-85
2023/01/25 01:13:43;;;;;;;8.23;5.25;;;;;;;8.09;70.49;102933.50;4956340;28;20056;-84
2023/01/25 01:16:11;;;;;;;11.30;5.18;;;;;;;7.69;70.21;102873.25;4972143;28;20113;-85
2023/01/25 01:18:39;;;;;;;10.25;5.18;;;;;;;8.06;70.40;102922.78;4969152;28;20118;-85
2023/01/25 01:21:05;;;;;;;10.18;4.95;;;;;;;8.15;70.30;102952.34;4963367;28;20038;-86
2023/01/25 01:23:31;;;;;;;9.63;4.70;;;;;;;7.97;70.47;102911.47;4946680;28;20034;-85
2023/01/25 01:26:01;;;;;;;9.15;4.88;;;;;;;7.56;70.34;102833.78;4955319;28;20039;-84
2023/01/25 01:28:28;;;;;;;8.30;4.60;;;;;;;8.21;70.65;102944.19;4969390;28;20062;-84
2023/01/25 01:31:01;;;;;;;9.05;4.72;;;;;;;8.15;70.42;102947.13;4955817;28;20038;-84
2023/01/25 01:33:27;;;;;;;8.38;5.15;;;;;;;8.19;70.36;102940.53;4937915;28;20102;-84
2023/01/25 01:35:52;;;;;;;8.00;4.55;;;;;;;8.05;70.53;102940.09;4955449;28;20031;-86
2023/01/25 01:38:18;;;;;;;8.27;4.87;;;;;;;7.89;70.51;102910.72;4955288;28;20070;-86
2023/01/25 01:40:45;;;;;;;7.53;4.40;;;;;;;7.93;70.16;102907.66;4955330;28;20297;-87
2023/01/25 01:43:21;;;;;;;9.55;5.07;;;;;;;8.05;70.32;102924.47;4967279;28;20027;-86
2023/01/25 01:45:47;;;;;;;8.57;4.32;;;;;;;8.14;70.33;102942.69;4969597;28;20117;-83
2023/01/25 01:48:19;;;;;;;6.60;4.38;;;;;;;8.10;70.26;102933.63;4972304;28;20026;-85
2023/01/25 01:50:47;;;;;;;9.82;5.22;;;;;;;7.87;70.26;102901.84;4969562;28;20094;-86
2023/01/25 01:53:13;;;;;;;7.30;4.70;;;;;;;7.71;70.50;102879.50;4974017;28;20093;-86
2023/01/25 01:55:39;;;;;;;7.95;4.70;;;;;;;8.09;70.44;102952.66;4966752;28;20023;-86
2023/01/25 01:58:05;;;;;;;6.45;4.20;;;;;;;7.84;70.49;102901.53;4955695;28;20106;-86
2023/01/25 02:00:37;;;;;;;8.20;4.80;;;;;;;7.57;70.50;102843.41;4965220;28;20113;-84
2023/01/25 02:03:02;;;;;;;7.72;4.38;;;;;;;8.12;70.44;102947.72;4941545;28;20496;-84
2023/01/25 02:05:57;;;;;;;7.35;4.65;;;;;;;8.02;70.32;102928.44;4938014;28;20057;-87
2023/01/25 02:08:24;;;;;;;6.95;4.20;;;;;;;7.65;70.60;102878.00;4951267;28;20035;-87
2023/01/25 02:10:49;;;;;;;7.40;4.40;;;;;;;7.83;70.48;102902.28;4942055;28;20041;-86
2023/01/25 02:13:22;;;;;;;7.25;4.07;;;;;;;7.86;70.50;102903.53;4971137;28;20030;-86
2023/01/25 02:15:50;;;;;;;7.53;4.13;;;;;;;7.97;70.63;102921.88;4966714;28;20101;-86
2023/01/25 02:18:17;;;;;;;8.65;4.63;;;;;;;8.03;70.66;102933.81;4955597;28;20051;-86
2023/01/25 02:20:49;;;;;;;8.55;4.72;;;;;;;7.98;70.66;102931.50;4937937;28;20032;-85
2023/01/25 02:23:53;;;;;;;6.78;4.07;;;;;;;8.08;70.49;102944.69;4936784;28;20530;-86
2023/01/25 02:26:19;;;;;;;8.77;4.60;;;;;;;7.84;70.54;102902.47;4961274;28;20030;-86
2023/01/25 02:28:48;;;;;;;;;;;;;;;8.08;70.46;102949.88;4970959;28;20034;-86
2023/01/25 02:31:14;;;;;;;5.78;3.70;;;;;;;8.08;70.48;102953.38;4966547;28;19953;-86
2023/01/25 02:33:39;;;;;;;7.82;4.40;;;;;;;7.91;70.28;102925.69;4954763;28;20519;-86
2023/01/25 02:36:08;;;;;;;6.80;4.25;;;;;;;8.06;70.35;102954.91;4936002;28;20573;-85
2023/01/25 02:38:38;;;;;;;6.95;4.50;;;;;;;7.89;70.27;102922.03;4970917;28;20069;-86
2023/01/25 02:41:21;;;;;;;7.75;4.40;;;;;;;8.03;70.29;102944.22;4971578;28;20030;-86
2023/01/25 02:43:47;;;;;;;6.82;4.25;;;;;;;8.03;70.50;102936.41;4943829;28;20117;-85
2023/01/25 02:46:26;;;;;;;6.68;4.00;;;;;;;7.98;70.41;102947.13;4980664;28;20408;-86
2023/01/25 02:48:53;;;;;;;9.05;4.28;;;;;;;8.04;70.05;102937.34;4954598;28;20023;-86
2023/01/25 02:51:19;;;;;;;7.38;4.35;;;;;;;7.98;70.00;102945.47;4945213;28;20033;-86
2023/01/25 02:53:45;;;;;;;;;;;;;;;7.99;70.39;102943.78;4954748;28;20109;-86
2023/01/25 02:56:10;;;;;;;7.28;4.63;;;;;;;7.87;70.13;102926.19;4953669;28;20000;-85
2023/01/25 02:58:36;;;;;;;6.78;4.25;;;;;;;7.71;70.14;102889.00;4959020;28;20381;-86
2023/01/25 03:01:02;;;;;;;6.53;4.37;;;;;;;7.54;69.99;102862.22;4970385;28;20042;-86
2023/01/25 03:03:27;;;;;;;8.02;4.38;;;;;;;7.65;69.92;102880.59;4965524;28;20300;-85
2023/01/25 03:05:53;;;;;;;9.98;4.63;;;;;;;7.57;69.95;102885.00;4953884;28;20034;-85
2023/01/25 03:08:18;;;;;;;10.68;4.20;;;;;;;7.47;69.93;102857.19;4962543;28;20484;-85
2023/01/25 03:10:44;;;;;;;7.40;4.43;;;;;;;7.65;69.99;102904.91;4970347;28;20023;-85
2023/01/25 03:13:10;;;;;;;7.77;4.60;;;;;;;7.68;70.07;102896.47;4965607;28;20120;-85
2023/01/25 03:15:35;;;;;;;6.95;4.05;;;;;;;7.89;70.02;102939.31;4969278;28;20050;-85
2023/01/25 03:18:01;;;;;;;6.88;3.80;;;;;;;7.86;69.63;102941.63;4969513;28;20046;-85
2023/01/25 03:20:27;;;;;;;8.15;4.55;;;;;;;7.92;69.98;102958.78;4954377;28;20497;-85
2023/01/25 03:22:53;;;;;;;8.55;4.57;;;;;;;7.76;70.01;102918.97;4943201;28;20045;-85
2023/01/25 03:25:19;;;;;;;7.75;4.28;;;;;;;7.88;70.01;102950.50;4953632;28;20033;-85
2023/01/25 03:27:45;;;;;;;7.80;4.20;;;;;;;7.47;69.96;102883.19;4969033;28;20034;-85
2023/01/25 03:30:10;;;;;;;8.80;4.87;;;;;;;7.73;70.00;102924.81;4963384;28;20035;-86
2023/01/25 03:32:37;;;;;;;8.23;5.10;;;;;;;7.69;69.69;102916.53;4970150;28;20381;-85
2023/01/25 03:35:03;;;;;;;7.85;4.50;;;;;;;7.78;69.99;102937.34;4973248;28;20420;-86
2023/01/25 03:37:30;;;;;;;;;;;;;;;7.93;69.70;102962.28;4966117;28;20110;-87
2023/01/25 03:39:56;;;;;;;8.23;4.75;;;;;;;7.77;69.91;102951.09;4954004;28;19918;-86
2023/01/25 03:42:22;;;;;;;7.97;4.38;;;;;;;7.53;69.76;102908.88;4969484;28;20105;-84
2023/01/25 03:44:48;;;;;;;8.60;4.95;;;;;;;7.65;69.83;102930.91;4953100;28;20065;-84
2023/01/25 03:47:15;;;;;;;8.52;4.88;;;;;;;7.43;69.88;102898.31;4970887;28;20524;-86
2023/01/25 03:49:41;;;;;;;9.15;4.75;;;;;;;7.36;69.79;102888.06;4954163;28;20053;-84
2023/01/25 03:52:07;;;;;;;9.40;4.63;;;;;;;7.86;69.86;102972.84;4958246;28;20091;-85
2023/01/25 03:54:35;;;;;;;;;;;;;;;7.87;69.76;102973.03;4976043;28;20023;-85
2023/01/25 03:57:01;;;;;;;8.57;4.57;;;;;;;7.73;69.54;102960.31;4969143;28;20307;-85
2023/01/25 03:59:27;;;;;;;8.85;4.93;;;;;;;7.82;69.88;102975.91;4971737;28;20749;-85
2023/01/25 04:01:53;;;;;;;7.85;4.50;;;;;;;7.52;69.99;102936.56;4950752;28;20038;-84
2023/01/25 04:04:18;;;;;;;7.95;4.30;;;;;;;7.57;69.96;102934.41;4968346;28;20097;-85
2023/01/25 04:06:44;;;;;;;10.05;4.90;;;;;;;7.40;69.85;102908.41;4962001;28;20076;-85
2023/01/25 04:09:10;;;;;;;8.35;4.75;;;;;;;7.77;69.95;102984.91;4952903;28;20097;-84
2023/01/25 04:11:35;;;;;;;9.32;5.22;;;;;;;7.47;69.82;102922.19;4964694;28;20030;-84
2023/01/25 04:14:02;;;;;;;7.60;4.85;;;;;;;7.72;69.41;102977.56;4951044;28;20106;-85
2023/01/25 04:16:30;;;;;;;9.35;5.20;;;;;;;7.42;69.16;102909.47;4952970;28;20026;-85
2023/01/25 04:19:02;;;;;;;9.80;5.30;;;;;;;7.29;69.41;102895.25;4969152;28;20027;-84
2023/01/25 04:21:27;;;;;;;9.77;5.60;;;;;;;7.47;69.42;102923.84;4959047;28;20031;-85
2023/01/25 04:23:53;;;;;;;9.85;5.28;;;;;;;7.74;69.65;102978.63;4951984;28;20507;-85
2023/01/25 04:26:18;;;;;;;8.63;5.05;;;;;;;7.65;69.66;102958.59;4968376;28;20039;-86
2023/01/25 04:28:44;;;;;;;9.70;5.35;;;;;;;7.82;69.34;102991.53;4952999;28;20035;-86
2023/01/25 04:31:10;;;;;;;10.02;5.40;;;;;;;7.56;69.50;102948.19;4954014;28;20493;-86
2023/01/25 04:33:35;;;;;;;8.93;5.25;;;;;;;7.57;69.56;102950.03;4961022;28;20027;-86
2023/01/25 04:36:01;;;;;;;9.18;5.38;;;;;;;7.81;69.23;102987.06;4953299;28;20031;-85
2023/01/25 04:38:27;;;;;;;10.40;5.88;;;;;;;7.75;69.61;102997.78;4954543;28;20566;-85
2023/01/25 04:40:53;;;;;;;11.13;5.93;;;;;;;7.67;69.20;102981.41;4957201;28;20109;-85
2023/01/25 04:43:19;;;;;;;12.02;5.78;;;;;;;7.61;69.49;102974.66;4974476;28;20489;-85
2023/01/25 04:45:45;;;;;;;;;;;;;;;7.74;69.32;103001.13;4955204;28;20035;-84
2023/01/25 04:48:11;;;;;;;11.07;5.68;;;;;;;7.58;69.51;102988.28;4972888;28;19921;-85
2023/01/25 04:50:37;;;;;;;;;;;;;;;7.73;69.30;103005.44;4972940;28;20031;-84
2023/01/25 04:53:04;;;;;;;10.50;5.60;;;;;;;7.70;69.64;102994.72;4956990;28;19910;-87
2023/01/25 04:55:30;;;;;;;13.70;6.47;;;;;;;7.29;69.34;102931.63;4956526;28;20129;-85
2023/01/25 04:57:56;;;;;;;11.00;5.85;;;;;;;7.32;69.19;102923.22;4968080;28;20555;-85
2023/01/25 05:00:21;;;;;;;11.18;6.60;;;;;;;7.20;69.45;102917.72;4957032;28;20033;-85
2023/01/25 05:02:47;;;;;;;13.88;7.00;;;;;;;7.39;69.74;102955.94;4956341;28;20037;-86
2023/01/25 05:05:13;;;;;;;11.57;6.60;;;;;;;7.61;69.40;102985.97;4974050;28;20023;-85
2023/01/25 05:07:38;;;;;;;13.43;7.15;;;;;;;7.58;69.48;102979.53;4954886;28;20034;-85
2023/01/25 05:10:05;;;;;;;15.25;7.38;;;;;;;7.68;69.55;102995.31;4956077;28;20486;-84
2023/01/25 05:12:31;;;;;;;13.38;6.97;;;;;;;7.26;69.42;102920.00;4955191;28;20093;-84
2023/01/25 05:14:59;;;;;;;12.38;7.05;;;;;;;7.40;69.42;102939.59;4972371;28;20031;-84
2023/01/25 05:17:25;;;;;;;13.68;7.03;;;;;;;7.41;69.60;102944.97;4973168;28;20420;-85
2023/01/25 05:19:52;;;;;;;13.23;6.85;;;;;;;7.69;69.83;102989.38;4969852;28;20150;-84
2023/01/25 05:22:19;;;;;;;13.98;7.07;;;;;;;7.71;69.57;102995.63;4951788;28;20055;-85
2023/01/25 05:24:46;;;;;;;14.00;7.47;;;;;;;7.20;69.80;102911.59;4953353;28;20558;-84
2023/01/25 05:27:14;;;;;;;13.63;7.00;;;;;;;7.40;70.06;102943.13;4969812;28;20034;-85
2023/01/25 05:29:41;;;;;;;11.73;6.60;;;;;;;7.67;69.96;103002.19;4970712;28;20026;-85
2023/01/25 05:32:11;;;;;;;13.32;6.75;;;;;;;7.70;70.25;103004.19;4970042;28;20038;-86
2023/01/25 05:34:37;;;;;;;13.98;7.00;;;;;;;7.68;70.13;103004.06;4956072;28;20089;-85
2023/01/25 05:37:04;;;;;;;12.40;6.90;;;;;;;7.34;69.56;102943.44;4973578;28;20030;-84
2023/01/25 05:39:29;;;;;;;12.25;6.15;;;;;;;7.53;70.08;102998.22;4970668;28;20057;-85
2023/01/25 05:41:59;;;;;;;12.13;6.80;;;;;;;7.40;70.04;102966.50;4958438;28;20480;-86
2023/01/25 05:44:25;;;;;;;12.15;7.10;;;;;;;7.06;69.81;102904.97;4939804;28;20038;-84
2023/01/25 05:46:51;;;;;;;14.00;6.78;;;;;;;7.08;69.90;102909.56;4955958;28;20030;-85
2023/01/25 05:49:17;;;;;;;12.27;6.40;;;;;;;7.14;69.82;102922.28;4969826;28;20066;-84
2023/01/25 05:51:43;;;;;;;12.23;6.82;;;;;;;7.17;70.02;102926.84;4970799;28;20046;-85
2023/01/25 05:54:13;;;;;;;12.23;6.88;;;;;;;7.48;70.18;102986.41;4953490;28;20133;-86
2023/01/25 05:56:39;;;;;;;12.07;6.78;;;;;;;7.55;69.94;103004.47;4971279;28;20034;-86
2023/01/25 05:59:04;;;;;;;12.02;7.03;;;;;;;7.22;70.24;102946.47;4954933;28;20042;-87
2023/01/25 06:01:30;;;;;;;13.68;7.35;;;;;;;7.62;70.09;103008.63;4972907;28;20111;-86
2023/01/25 06:03:56;;;;;;;11.85;6.50;;;;;;;7.54;70.09;102994.84;4955425;28;20034;-87
2023/01/25 06:06:22;;;;;;;11.77;6.43;;;;;;;7.49;70.34;102987.31;4972850;28;20070;-86
2023/01/25 06:08:47;;;;;;;12.05;6.57;;;;;;;7.62;70.29;103006.03;4961826;28;20057;-87
2023/01/25 06:11:15;;;;;;;11.65;6.22;;;;;;;7.62;70.26;103008.63;4951394;28;20066;-87
2023/01/25 06:13:41;;;;;;;12.45;6.72;;;;;;;7.28;69.93;102940.19;4940803;29;20027;-86
2023/01/25 06:16:08;;;;;;;11.38;6.25;;;;;;;7.61;70.26;103008.47;4955460;28;20038;-85
2023/01/25 06:18:34;;;;;;;12.88;6.63;;;;;;;7.61;69.92;102988.56;4954796;28;20133;-86
2023/01/25 06:21:00;;;;;;;;;;;;;;;7.65;70.12;103002.81;4956249;28;20039;-85
2023/01/25 06:23:26;;;;;;;11.45;6.05;;;;;;;7.29;70.19;102948.91;4954559;28;19918;-86
2023/01/25 06:25:55;;;;;;;11.88;6.50;;;;;;;7.61;70.30;102998.06;4954532;28;20030;-86
2023/01/25 06:28:22;;;;;;;14.23;6.72;;;;;;;7.39;70.12;102943.88;4964659;28;20839;-84
2023/01/25 06:30:47;;;;;;;11.50;6.00;;;;;;;7.27;69.98;102921.84;4953417;28;20198;-87
2023/01/25 06:33:13;;;;;;;13.23;6.68;;;;;;;7.38;69.74;102941.13;4966882;28;20867;-87
2023/01/25 06:35:39;;;;;;;11.05;6.47;;;;;;;7.29;69.98;102928.13;4971978;28;20066;-85
2023/01/25 06:38:06;;;;;;;13.32;6.65;;;;;;;7.54;70.36;102978.31;4952733;28;20022;-87
2023/01/25 06:40:31;;;;;;;11.93;6.22;;;;;;;7.44;70.13;102972.94;4969105;28;20508;-87
2023/01/25 06:43:10;;;;;;;14.07;6.47;;;;;;;7.64;70.24;103006.16;4954295;28;20027;-87
2023/01/25 06:45:36;;;;;;;14.10;6.95;;;;;;;7.50;70.29;102989.16;4952584;28;20033;-85
2023/01/25 06:48:01;;;;;;;11.77;6.28;;;;;;;7.36;70.18;102953.97;4954847;28;20026;-83
2023/01/25 06:50:28;;;;;;;12.15;6.82;;;;;;;7.43;70.19;102958.09;4970665;28;20073;-85
2023/01/25 06:52:54;;;;;;;13.52;6.95;;;;;;;7.41;70.29;102962.22;4965988;28;20035;-88
2023/01/25 06:55:20;;;;;;;13.07;6.60;;;;;;;7.35;70.24;102944.34;4952916;28;20488;-86
2023/01/25 06:57:46;;;;;;;12.48;6.65;;;;;;;7.36;70.15;102960.84;4966912;28;20037;-88
2023/01/25 07:00:12;;;;;;;12.40;6.32;;;;;;;7.29;70.16;102941.13;4954443;28;20026;-88
2023/01/25 07:02:37;;;;;;;12.30;6.28;;;;;;;7.48;70.20;102983.81;4970796;28;20073;-87
2023/01/25 07:05:03;;;;;;;12.88;6.53;;;;;;;7.29;69.97;102944.63;4954268;28;20098;-85
2023/01/25 07:07:29;;;;;;;11.48;6.00;;;;;;;7.57;70.49;102998.50;4970148;28;20031;-86
2023/01/25 07:09:55;;;;;;;10.85;6.35;;;;;;;7.58;70.53;102993.47;4953580;28;20411;-87
2023/01/25 07:12:21;;;;;;;11.65;6.20;;;;;;;7.60;70.25;102993.59;4970321;28;20495;-88
2023/01/25 07:14:48;;;;;;;;;;;;;;;7.63;70.53;102997.44;4953590;28;20045;-86
2023/01/25 07:17:14;;;;;;;11.10;6.17;;;;;;;7.63;70.53;103006.94;4971105;28;19925;-86
2023/01/25 07:19:40;;;;;;;11.07;6.00;;;;;;;7.59;70.48;102995.31;4968494;28;20377;-85
2023/01/25 07:22:05;;;;;;;11.23;6.30;;;;;;;7.24;70.33;102950.09;4953166;28;20038;-88
2023/01/25 07:24:31;;;;;;;12.85;6.47;;;;;;;7.39;70.64;102967.28;4974462;28;20093;-86
2023/01/25 07:26:57;;;;;;;11.52;6.22;;;;;;;7.32;70.64;102950.16;4963571;28;20039;-86
2023/01/25 07:29:23;;;;;;;9.75;5.57;;;;;;;7.54;70.66;102988.72;4969541;28;20481;-86
2023/01/25 07:31:48;;;;;;;10.55;6.00;;;;;;;7.54;70.63;102978.31;4967522;28;20662;-85
2023/01/25 07:34:15;;;;;;;12.88;6.07;;;;;;;7.49;70.82;102980.47;4953807;28;20030;-87
2023/01/25 07:36:42;;;;;;;9.38;5.10;;;;;;;7.37;70.42;102952.31;4953930;28;20057;-87
2023/01/25 07:39:10;;;;;;;9.82;5.78;;;;;;;7.63;70.86;103012.16;4970985;28;20038;-88
2023/01/25 07:41:35;;;;;;;11.25;5.93;;;;;;;7.26;70.93;102957.31;4954719;28;20026;-87
2023/01/25 07:44:01;;;;;;;11.43;6.07;;;;;;;7.19;70.52;102943.53;4970353;28;20523;-87
2023/01/25 07:46:28;;;;;;;10.75;5.65;;;;;;;7.65;70.79;103026.22;4953826;28;20043;-86
2023/01/25 07:48:53;;;;;;;11.25;6.00;;;;;;;7.33;70.51;102967.56;4954622;28;20046;-85
2023/01/25 07:51:25;;;;;;;10.60;6.03;;;;;;;7.62;71.14;103025.88;4937808;28;20030;-85
2023/01/25 07:53:58;;;;;;;11.90;6.40;;;;;;;7.65;70.66;103018.41;4970413;28;20035;-86
2023/01/25 07:56:32;;;;;;;11.70;6.07;;;;;;;7.63;70.88;103019.94;4959309;28;20027;-88
2023/01/25 07:58:59;;;;;;;11.18;5.78;;;;;;;7.65;71.00;103021.03;4953898;28;20101;-85
2023/01/25 08:01:27;;;;;;;9.77;5.80;;;;;;;7.63;70.84;103017.34;4946606;28;20475;-85
2023/01/25 08:03:55;;;;;;;12.10;6.22;;;;;;;7.62;70.98;103019.03;4956851;28;20030;-86
2023/01/25 08:06:29;;;;;;;10.43;6.05;;;;;;;7.46;70.86;102997.41;4954609;28;20113;-88
2023/01/25 08:08:56;;;;;;;10.32;5.90;;;;;;;7.56;70.75;103008.00;4934449;28;20124;-85
2023/01/25 08:11:28;;;;;;;9.65;5.70;;;;;;;7.61;71.14;103021.47;4968466;28;20035;-88
2023/01/25 08:13:56;;;;;;;11.10;6.32;;;;;;;7.61;71.05;103024.97;4972632;28;20038;-89
2023/01/25 08:16:24;;;;;;;10.25;5.53;;;;;;;7.65;71.04;103026.22;4958301;28;20027;-88
2023/01/25 08:18:53;;;;;;;10.80;6.18;;;;;;;7.54;71.03;102996.53;4966310;28;20054;-88
2023/01/25 08:21:23;;;;;;;9.38;5.53;;;;;;;7.68;71.01;103016.13;4971247;28;20042;-87
2023/01/25 08:23:49;;;;;;;10.23;5.63;;;;;;;7.54;70.91;102994.84;4959177;28;20023;-88
2023/01/25 08:26:17;;;;;;;8.82;5.40;;;;;;;7.41;71.25;102972.63;4957304;28;20031;-88
2023/01/25 08:28:43;;;;;;;9.10;5.15;;;;;;;7.46;71.10;102984.41;4957836;28;20071;-87
2023/01/25 08:31:17;;;;;;;10.10;5.65;;;;;;;7.67;71.00;103007.41;4957585;28;20057;-89
2023/01/25 08:33:45;;;;;;;9.13;4.95;;;;;;;7.70;70.87;103012.00;4971672;28;20031;-88
2023/01/25 08:36:13;;;;;;;10.48;5.10;;;;;;;7.61;70.97;102992.88;4973482;28;20058;-88
2023/01/25 08:38:41;;;;;;;11.55;5.82;;;;;;;7.55;70.38;102996.66;4973977;28;20026;-88
2023/01/25 08:41:13;;;;;;;9.02;5.30;;;;;;;7.61;71.07;103011.97;4974798;28;20034;-88
2023/01/25 08:43:39;;;;;;;10.80;5.82;;;;;;;7.12;70.93;102914.31;4954337;28;20038;-86
2023/01/25 08:46:05;;;;;;;9.23;5.43;;;;;;;7.52;71.11;102987.66;4954620;28;20416;-86
2023/01/25 08:48:30;;;;;;;9.55;5.50;;;;;;;7.56;71.00;102979.41;4969521;28;20470;-86
2023/01/25 08:50:56;;;;;;;8.70;5.32;;;;;;;7.37;71.03;102939.31;4973519;28;20030;-84
2023/01/25 08:53:22;;;;;;;9.65;5.80;;;;;;;7.70;71.07;102997.34;4954290;28;20035;-86
2023/01/25 08:55:48;;;;;;;9.15;5.47;;;;;;;7.60;70.76;102978.00;4979560;28;20065;-84
2023/01/25 08:58:15;;;;;;;8.95;5.32;;;;;;;7.63;71.07;102979.25;4977732;28;20045;-84
2023/01/25 09:00:42;;;;;;;9.55;5.65;;;;;;;7.50;71.21;102953.69;4956674;28;20031;-85
2023/01/25 09:03:08;;;;;;;11.60;5.88;;;;;;;7.29;71.12;102915.13;4973190;28;20062;-86
2023/01/25 09:05:34;;;;;;;13.05;5.32;;;;;;;7.72;71.43;102993.16;4973305;28;20421;-87
2023/01/25 09:08:01;;;;;;;8.90;5.38;;;;;;;7.24;71.20;102901.66;4956660;28;20105;-83
2023/01/25 09:10:26;;;;;;;9.25;5.35;;;;;;;7.59;71.17;102969.28;4970959;28;20023;-86
2023/01/25 09:12:53;;;;;;;9.45;5.53;;;;;;;7.46;71.42;102942.81;4973822;28;20512;-85
2023/01/25 09:15:19;;;;;;;10.80;5.70;;;;;;;7.51;70.96;102934.75;4967818;28;20097;-86
2023/01/25 09:17:44;;;;;;;9.55;5.40;;;;;;;7.53;71.15;102940.06;4956330;28;20540;-85
2023/01/25 09:20:10;;;;;;;13.35;5.72;;;;;;;7.58;71.19;102940.53;4972018;28;20093;-86
2023/01/25 09:22:36;;;;;;;9.98;5.70;;;;;;;7.51;71.48;102939.94;4956479;28;20022;-86
2023/01/25 09:25:02;;;;;;;10.52;5.70;;;;;;;7.67;71.80;102965.78;4954553;28;20185;-86
2023/01/25 09:27:28;;;;;;;10.70;5.90;;;;;;;7.69;71.50;102961.66;4973438;28;20038;-86
2023/01/25 09:29:53;;;;;;;10.60;5.32;;;;;;;7.74;71.67;102957.81;4970763;28;20033;-87
2023/01/25 09:32:19;;;;;;;11.07;5.45;;;;;;;7.59;71.74;102924.19;4956203;28;20516;-84
2023/01/25 09:34:44;;;;;;;19.57;5.60;;;;;;;7.59;71.96;102924.19;4971457;28;20026;-86
2023/01/25 09:37:10;;;;;;;9.33;5.33;;;;;;;7.46;71.37;102888.22;4972589;28;20309;-86
2023/01/25 09:39:36;;;;;;;11.90;5.75;;;;;;;7.50;71.69;102898.19;4969655;28;20369;-87
2023/01/25 09:42:07;;;;;;;9.00;5.50;;;;;;;7.78;71.38;102942.56;4967150;28;20440;-87
2023/01/25 09:45:10;;;;;;;9.65;5.40;;;;;;;7.80;71.60;102938.41;4972055;28;20026;-86
2023/01/25 09:47:43;;;;;;;11.93;5.28;;;;;;;7.60;71.54;102905.19;4972862;28;20420;-86
2023/01/25 09:50:21;;;;;;;9.57;5.30;;;;;;;7.79;71.45;102934.91;4972308;28;20098;-86
2023/01/25 09:53:13;;;;;;;7.65;4.95;;;;;;;7.78;71.89;102927.84;4972455;28;20509;-86
2023/01/25 09:55:39;;;;;;;8.40;5.55;;;;;;;7.66;71.64;102898.97;4956313;28;20046;-85
2023/01/25 09:58:12;;;;;;;9.50;4.90;;;;;;;7.82;71.83;102931.69;4972237;28;20034;-86
2023/01/25 10:00:42;;;;;;;10.23;5.07;;;;;;;7.63;71.58;102888.22;4955570;28;20192;-86
2023/01/25 10:03:21;;;;;;;10.27;5.78;;;;;;;7.53;71.88;102867.28;4971032;28;20030;-87
2023/01/25 10:05:49;;;;;;;10.68;5.05;;;;;;;7.39;72.10;102834.72;4971551;28;20022;-88
2023/01/25 10:08:21;;;;;;;8.32;5.10;;;;;;;7.83;71.82;102904.91;4954885;28;20027;-87
2023/01/25 10:10:51;;;;;;;8.18;5.30;;;;;;;7.59;72.05;102862.69;4976476;28;20041;-88
2023/01/25 10:13:20;;;;;;;7.65;4.85;;;;;;;7.82;71.98;102888.38;4957705;28;20102;-88
2023/01/25 10:15:56;;;;;;;9.52;5.07;;;;;;;7.60;71.58;102854.13;4939778;28;20058;-87
2023/01/25 10:18:26;;;;;;;7.47;4.50;;;;;;;7.84;71.98;102899.84;4969736;28;20074;-87
2023/01/25 10:21:02;;;;;;;10.27;5.10;;;;;;;7.85;72.58;102888.69;4955278;28;20551;-88
2023/01/25 10:23:36;;;;;;;6.40;4.28;;;;;;;7.87;72.09;102881.97;4955592;28;20039;-87
2023/01/25 10:26:17;;;;;;;7.45;4.40;;;;;;;7.83;72.20;102869.41;4981217;28;20031;-88
2023/01/25 10:29:10;;;;;;;8.30;4.90;;;;;;;7.58;72.19;102816.66;4989314;28;20021;-88
2023/01/25 10:31:39;;;;;;;8.20;4.82;;;;;;;7.91;72.09;102868.47;4992482;28;20027;-86
2023/01/25 10:34:17;;;;;;;8.95;4.72;;;;;;;7.67;72.28;102820.16;4955366;28;20149;-87
2023/01/25 10:36:45;;;;;;;9.88;5.00;;;;;;;7.70;72.26;102817.88;4971506;28;20023;-87
2023/01/25 10:39:11;;;;;;;8.23;4.78;;;;;;;7.71;72.62;102821.38;4970654;28;20070;-87
2023/01/25 10:41:50;;;;;;;9.10;4.68;;;;;;;7.73;72.62;102820.78;4956657;28;20515;-86
2023/01/25 10:44:23;;;;;;;8.95;4.68;;;;;;;7.78;72.34;102825.50;4964333;28;20035;-86
2023/01/25 10:46:55;;;;;;;8.35;4.97;;;;;;;7.49;72.04;102771.53;4969856;28;20030;-87
2023/01/25 10:49:34;;;;;;;7.85;4.82;;;;;;;7.98;72.01;102845.66;4955259;28;20026;-87
2023/01/25 10:52:18;;;;;;;7.22;4.47;;;;;;;7.88;72.50;102825.66;4939423;28;20034;-87
2023/01/25 10:54:49;;;;;;;7.07;4.30;;;;;;;7.92;72.62;102825.19;4955126;28;20699;-87
2023/01/25 10:57:17;;;;;;;7.47;4.35;;;;;;;7.95;72.50;102822.88;4942428;28;20519;-87
2023/01/25 10:59:49;;;;;;;7.00;4.50;;;;;;;7.63;72.70;102771.22;4963387;28;20089;-87
2023/01/25 11:02:44;;;;;;;7.45;4.45;;;;;;;7.94;72.75;102821.03;4971138;28;20086;-88
2023/01/25 11:05:28;;;;;;;7.97;4.35;;;;;;;7.82;73.01;102786.03;4954492;28;20018;-88
2023/01/25 11:07:56;;;;;;;8.40;4.72;;;;;;;7.95;72.88;102810.75;4964887;28;20030;-87
2023/01/25 11:10:33;;;;;;;7.05;4.38;;;;;;;8.01;72.85;102806.94;4967479;28;20109;-87
2023/01/25 11:13:14;;;;;;;8.40;4.57;;;;;;;7.84;73.25;102771.47;4966168;28;20456;-86
2023/01/25 11:15:43;;;;;;;9.60;4.93;;;;;;;7.92;73.19;102783.56;4973143;28;20400;-86
2023/01/25 11:18:27;;;;;;;8.80;4.28;;;;;;;7.80;73.21;102761.53;4953730;28;20079;-87
2023/01/25 11:21:20;;;;;;;9.18;4.43;;;;;;;7.98;73.54;102791.97;4959496;28;20666;-87
2023/01/25 11:23:58;;;;;;;8.43;4.57;;;;;;;7.97;73.37;102790.09;4953179;28;20037;-87
2023/01/25 11:26:24;;;;;;;10.38;4.68;;;;;;;7.85;73.34;102769.03;4972319;28;20034;-87
2023/01/25 11:28:49;;;;;;;9.40;4.85;;;;;;;7.81;73.41;102751.31;4965528;28;20049;-87
2023/01/25 11:31:19;;;;;;;10.10;4.50;;;;;;;7.92;73.45;102757.53;4951648;28;20511;-87
2023/01/25 11:33:45;;;;;;;9.63;4.60;;;;;;;7.91;73.41;102746.19;4954069;28;20031;-87
2023/01/25 11:36:22;;;;;;;10.65;4.95;;;;;;;8.02;73.96;102768.06;4955226;28;20546;-86
2023/01/25 11:39:09;;;;;;;8.63;4.97;;;;;;;7.66;73.90;102701.31;4967859;28;20035;-86